Terminal Aerodrome Forecast
Issued by NWS

Current Version | Previous Version | Text Only | Print | Product List | Glossary On
Versions: 1 2 3 4 5 6 7 8 9 10 11 12 13 14 15 16 17 18 19 20 21 22 23 24 25 26 27 28 29 30 31 32 33 34 35
000 FTUS41 KBOX 270540 TAFBAF TAF KBAF 270540Z 2706/2806 VRB03KT P6SM BKN120 FM271400 VRB03KT P6SM VCSH BKN070 FM271700 18007KT P6SM VCSH BKN070 FM272100 19009KT P6SM BKN090 FM280000 19005KT P6SM BKN100 FM280400 20004KT P6SM SCT200=

USA.gov is the U.S. government's official web portal to all federal, state and local government web resources and services.